sensor_id;sensor_type;location;lat;lon;timestamp;temperature;humidity
45549;DHT22;31270;48.328;10.096;2022-09-09T00:00:21;13.30;99.90
45549;DHT22;31270;48.328;10.096;2022-09-09T00:03:17;13.40;99.90
45549;DHT22;31270;48.328;10.096;2022-09-09T00:06:43;13.40;99.90
45549;DHT22;31270;48.328;10.096;2022-09-09T00:11:29;13.50;99.90
45549;DHT22;31270;48.328;10.096;2022-09-09T00:13:57;13.50;99.90
45549;DHT22;31270;48.328;10.096;2022-09-09T00:16:25;13.50;99.90
45549;DHT22;31270;48.328;10.096;2022-09-09T00:24:32;13.50;99.90
45549;DHT22;31270;48.328;10.096;2022-09-09T00:27:19;13.50;99.90
45549;DHT22;31270;48.328;10.096;2022-09-09T00:30:12;13.50;99.90
45549;DHT22;31270;48.328;10.096;2022-09-09T00:32:37;13.50;99.90
45549;DHT22;31270;48.328;10.096;2022-09-09T00:35:21;13.40;99.90
45549;DHT22;31270;48.328;10.096;2022-09-09T00:37:51;13.40;99.90
45549;DHT22;31270;48.328;10.096;2022-09-09T00:40:31;13.40;99.90
45549;DHT22;31270;48.328;10.096;2022-09-09T00:43:16;13.40;99.90
45549;DHT22;31270;48.328;10.096;2022-09-09T00:46:45;13.40;99.90
45549;DHT22;31270;48.328;10.096;2022-09-09T00:48:49;13.40;99.90
45549;DHT22;31270;48.328;10.096;2022-09-09T00:51:44;13.30;99.90
45549;DHT22;31270;48.328;10.096;2022-09-09T01:02:41;13.20;99.90
45549;DHT22;31270;48.328;10.096;2022-09-09T01:05:16;13.30;99.90
45549;DHT22;31270;48.328;10.096;2022-09-09T01:07:46;13.30;99.90
45549;DHT22;31270;48.328;10.096;2022-09-09T01:10:44;13.20;99.90
45549;DHT22;31270;48.328;10.096;2022-09-09T01:13:30;13.20;99.90
45549;DHT22;31270;48.328;10.096;2022-09-09T01:15:59;13.20;99.90
45549;DHT22;31270;48.328;10.096;2022-09-09T01:18:29;13.20;99.90
45549;DHT22;31270;48.328;10.096;2022-09-09T01:24:19;13.20;99.90
45549;DHT22;31270;48.328;10.096;2022-09-09T01:26:47;13.20;99.90
45549;DHT22;31270;48.328;10.096;2022-09-09T01:29:16;13.20;99.90
45549;DHT22;31270;48.328;10.096;2022-09-09T01:31:59;13.20;99.90
45549;DHT22;31270;48.328;10.096;2022-09-09T01:34:29;13.20;99.90
45549;DHT22;31270;48.328;10.096;2022-09-09T01:37:10;13.20;99.90
45549;DHT22;31270;48.328;10.096;2022-09-09T01:39:38;13.20;99.90
45549;DHT22;31270;48.328;10.096;2022-09-09T01:42:07;13.20;99.90
45549;DHT22;31270;48.328;10.096;2022-09-09T01:44:34;13.10;99.90
45549;DHT22;31270;48.328;10.096;2022-09-09T01:47:01;13.10;99.90
45549;DHT22;31270;48.328;10.096;2022-09-09T01:49:27;13.20;99.90
45549;DHT22;31270;48.328;10.096;2022-09-09T01:51:54;13.20;99.90
45549;DHT22;31270;48.328;10.096;2022-09-09T01:54:23;13.10;99.90
45549;DHT22;31270;48.328;10.096;2022-09-09T02:00:00;13.10;99.90
45549;DHT22;31270;48.328;10.096;2022-09-09T02:02:29;13.10;99.90
45549;DHT22;31270;48.328;10.096;2022-09-09T02:05:08;13.00;99.90
45549;DHT22;31270;48.328;10.096;2022-09-09T02:07:42;13.00;99.90
45549;DHT22;31270;48.328;10.096;2022-09-09T02:12:44;13.00;99.90
45549;DHT22;31270;48.328;10.096;2022-09-09T02:15:17;13.00;99.90
45549;DHT22;31270;48.328;10.096;2022-09-09T02:17:46;13.00;99.90
45549;DHT22;31270;48.328;10.096;2022-09-09T02:20:14;12.90;99.90
45549;DHT22;31270;48.328;10.096;2022-09-09T02:22:42;12.90;99.90
45549;DHT22;31270;48.328;10.096;2022-09-09T02:25:12;13.00;99.90
45549;DHT22;31270;48.328;10.096;2022-09-09T02:27:41;12.90;99.90
45549;DHT22;31270;48.328;10.096;2022-09-09T02:30:09;12.80;99.90
45549;DHT22;31270;48.328;10.096;2022-09-09T02:32:36;12.70;99.90
45549;DHT22;31270;48.328;10.096;2022-09-09T02:35:11;12.70;99.90
45549;DHT22;31270;48.328;10.096;2022-09-09T02:37:38;12.70;99.90
45549;DHT22;31270;48.328;10.096;2022-09-09T02:40:06;12.60;99.90
45549;DHT22;31270;48.328;10.096;2022-09-09T02:42:47;12.60;99.90
45549;DHT22;31270;48.328;10.096;2022-09-09T02:45:18;12.60;99.90
45549;DHT22;31270;48.328;10.096;2022-09-09T02:47:50;12.50;99.90
45549;DHT22;31270;48.328;10.096;2022-09-09T02:50:25;12.60;99.90
45549;DHT22;31270;48.328;10.096;2022-09-09T02:53:00;12.60;99.90
45549;DHT22;31270;48.328;10.096;2022-09-09T02:55:47;12.60;99.90
45549;DHT22;31270;48.328;10.096;2022-09-09T02:58:16;12.50;99.90
45549;DHT22;31270;48.328;10.096;2022-09-09T03:00:48;12.50;99.90
45549;DHT22;31270;48.328;10.096;2022-09-09T03:03:15;12.50;99.90
45549;DHT22;31270;48.328;10.096;2022-09-09T03:05:42;12.50;99.90
45549;DHT22;31270;48.328;10.096;2022-09-09T03:08:07;12.50;99.90
45549;DHT22;31270;48.328;10.096;2022-09-09T03:10:33;12.50;99.90
45549;DHT22;31270;48.328;10.096;2022-09-09T03:13:00;12.50;99.90
45549;DHT22;31270;48.328;10.096;2022-09-09T03:15:26;12.60;99.90
45549;DHT22;31270;48.328;10.096;2022-09-09T03:17:55;12.60;99.90
45549;DHT22;31270;48.328;10.096;2022-09-09T03:20:23;12.60;99.90
45549;DHT22;31270;48.328;10.096;2022-09-09T03:22:50;12.60;99.90
45549;DHT22;31270;48.328;10.096;2022-09-09T03:25:15;12.60;99.90
45549;DHT22;31270;48.328;10.096;2022-09-09T03:27:41;12.60;99.90
45549;DHT22;31270;48.328;10.096;2022-09-09T03:30:07;12.60;99.90
45549;DHT22;31270;48.328;10.096;2022-09-09T03:32:33;12.80;99.90
45549;DHT22;31270;48.328;10.096;2022-09-09T03:34:58;12.80;99.90
45549;DHT22;31270;48.328;10.096;2022-09-09T03:37:24;12.80;99.90
45549;DHT22;31270;48.328;10.096;2022-09-09T03:39:50;12.80;99.90
45549;DHT22;31270;48.328;10.096;2022-09-09T03:42:15;12.80;99.90
45549;DHT22;31270;48.328;10.096;2022-09-09T03:44:45;12.80;99.90
45549;DHT22;31270;48.328;10.096;2022-09-09T03:47:17;12.80;99.90
45549;DHT22;31270;48.328;10.096;2022-09-09T03:49:43;12.90;99.90
45549;DHT22;31270;48.328;10.096;2022-09-09T03:52:09;12.90;99.90
45549;DHT22;31270;48.328;10.096;2022-09-09T03:54:35;13.00;99.90
45549;DHT22;31270;48.328;10.096;2022-09-09T03:57:01;12.90;99.90
45549;DHT22;31270;48.328;10.096;2022-09-09T03:59:27;12.90;99.90
45549;DHT22;31270;48.328;10.096;2022-09-09T04:01:52;13.00;99.90
45549;DHT22;31270;48.328;10.096;2022-09-09T04:04:18;13.00;99.90
45549;DHT22;31270;48.328;10.096;2022-09-09T04:06:45;13.00;99.90
45549;DHT22;31270;48.328;10.096;2022-09-09T04:09:11;13.00;99.90
45549;DHT22;31270;48.328;10.096;2022-09-09T04:11:36;13.00;99.90
45549;DHT22;31270;48.328;10.096;2022-09-09T04:14:03;13.00;99.90
45549;DHT22;31270;48.328;10.096;2022-09-09T04:16:31;13.00;99.90
45549;DHT22;31270;48.328;10.096;2022-09-09T04:18:57;12.90;99.90
45549;DHT22;31270;48.328;10.096;2022-09-09T04:21:23;13.00;99.90
45549;DHT22;31270;48.328;10.096;2022-09-09T04:23:49;13.00;99.90
45549;DHT22;31270;48.328;10.096;2022-09-09T04:26:15;13.00;99.90
45549;DHT22;31270;48.328;10.096;2022-09-09T04:28:40;13.10;99.90
45549;DHT22;31270;48.328;10.096;2022-09-09T04:31:08;13.10;99.90
45549;DHT22;31270;48.328;10.096;2022-09-09T04:33:35;13.10;99.90
45549;DHT22;31270;48.328;10.096;2022-09-09T04:36:01;13.10;99.90
45549;DHT22;31270;48.328;10.096;2022-09-09T04:38:26;13.10;99.90
45549;DHT22;31270;48.328;10.096;2022-09-09T04:40:52;13.10;99.90
45549;DHT22;31270;48.328;10.096;2022-09-09T04:43:19;13.20;99.90
45549;DHT22;31270;48.328;10.096;2022-09-09T04:45:50;13.20;99.90
45549;DHT22;31270;48.328;10.096;2022-09-09T04:48:19;13.20;99.90
45549;DHT22;31270;48.328;10.096;2022-09-09T04:51:03;13.20;99.90
45549;DHT22;31270;48.328;10.096;2022-09-09T04:53:30;13.20;99.90
45549;DHT22;31270;48.328;10.096;2022-09-09T04:56:04;13.20;99.90
45549;DHT22;31270;48.328;10.096;2022-09-09T04:58:30;13.10;99.90
45549;DHT22;31270;48.328;10.096;2022-09-09T05:01:10;13.20;99.90
45549;DHT22;31270;48.328;10.096;2022-09-09T05:03:35;13.20;99.90
45549;DHT22;31270;48.328;10.096;2022-09-09T05:06:06;13.20;99.90
45549;DHT22;31270;48.328;10.096;2022-09-09T05:08:34;13.20;99.90
45549;DHT22;31270;48.328;10.096;2022-09-09T05:10:59;13.20;99.90
45549;DHT22;31270;48.328;10.096;2022-09-09T05:13:26;13.20;99.90
45549;DHT22;31270;48.328;10.096;2022-09-09T05:15:54;13.20;99.90
45549;DHT22;31270;48.328;10.096;2022-09-09T05:18:20;13.30;99.90
45549;DHT22;31270;48.328;10.096;2022-09-09T05:20:48;13.20;99.90
45549;DHT22;31270;48.328;10.096;2022-09-09T05:23:14;13.10;99.90
45549;DHT22;31270;48.328;10.096;2022-09-09T05:25:39;13.20;99.90
45549;DHT22;31270;48.328;10.096;2022-09-09T05:28:08;13.20;99.90
45549;DHT22;31270;48.328;10.096;2022-09-09T05:30:34;13.20;99.90
45549;DHT22;31270;48.328;10.096;2022-09-09T05:33:00;13.20;99.90
45549;DHT22;31270;48.328;10.096;2022-09-09T05:35:26;13.20;99.90
45549;DHT22;31270;48.328;10.096;2022-09-09T05:37:52;13.20;99.90
45549;DHT22;31270;48.328;10.096;2022-09-09T05:40:17;13.20;99.90
45549;DHT22;31270;48.328;10.096;2022-09-09T05:42:44;13.20;99.90
45549;DHT22;31270;48.328;10.096;2022-09-09T05:45:09;13.20;99.90
45549;DHT22;31270;48.328;10.096;2022-09-09T05:47:36;13.20;99.90
45549;DHT22;31270;48.328;10.096;2022-09-09T05:50:03;13.20;99.90
45549;DHT22;31270;48.328;10.096;2022-09-09T05:52:29;13.30;99.90
45549;DHT22;31270;48.328;10.096;2022-09-09T05:54:54;13.30;99.90
45549;DHT22;31270;48.328;10.096;2022-09-09T05:57:22;13.30;99.90
45549;DHT22;31270;48.328;10.096;2022-09-09T05:59:49;13.20;99.90
45549;DHT22;31270;48.328;10.096;2022-09-09T06:02:15;13.30;99.90
45549;DHT22;31270;48.328;10.096;2022-09-09T06:04:40;13.20;99.90
45549;DHT22;31270;48.328;10.096;2022-09-09T06:07:07;13.40;99.90
45549;DHT22;31270;48.328;10.096;2022-09-09T06:09:32;13.40;99.90
45549;DHT22;31270;48.328;10.096;2022-09-09T06:11:58;13.40;99.90
45549;DHT22;31270;48.328;10.096;2022-09-09T06:14:24;13.50;99.90
45549;DHT22;31270;48.328;10.096;2022-09-09T06:16:51;13.50;99.90
45549;DHT22;31270;48.328;10.096;2022-09-09T06:19:17;13.60;99.90
45549;DHT22;31270;48.328;10.096;2022-09-09T06:21:42;13.60;99.90
45549;DHT22;31270;48.328;10.096;2022-09-09T06:24:10;13.70;99.90
45549;DHT22;31270;48.328;10.096;2022-09-09T06:26:38;13.70;99.90
45549;DHT22;31270;48.328;10.096;2022-09-09T06:29:06;13.70;99.90
45549;DHT22;31270;48.328;10.096;2022-09-09T06:31:34;13.90;99.90
45549;DHT22;31270;48.328;10.096;2022-09-09T06:34:00;13.80;99.90
45549;DHT22;31270;48.328;10.096;2022-09-09T06:36:31;13.90;99.90
45549;DHT22;31270;48.328;10.096;2022-09-09T06:38:59;14.00;99.90
45549;DHT22;31270;48.328;10.096;2022-09-09T06:41:27;14.10;99.90
45549;DHT22;31270;48.328;10.096;2022-09-09T06:43:53;14.20;99.90
45549;DHT22;31270;48.328;10.096;2022-09-09T06:46:23;14.20;99.90
45549;DHT22;31270;48.328;10.096;2022-09-09T06:48:51;14.30;99.90
45549;DHT22;31270;48.328;10.096;2022-09-09T06:51:19;14.30;99.90
45549;DHT22;31270;48.328;10.096;2022-09-09T06:53:47;14.30;99.90
45549;DHT22;31270;48.328;10.096;2022-09-09T06:56:32;14.30;99.90
45549;DHT22;31270;48.328;10.096;2022-09-09T06:59:00;14.40;99.90
45549;DHT22;31270;48.328;10.096;2022-09-09T07:01:30;14.50;99.90
45549;DHT22;31270;48.328;10.096;2022-09-09T07:03:57;14.60;99.90
45549;DHT22;31270;48.328;10.096;2022-09-09T07:06:29;14.70;99.90
45549;DHT22;31270;48.328;10.096;2022-09-09T07:08:57;14.70;99.90
45549;DHT22;31270;48.328;10.096;2022-09-09T07:11:30;14.70;99.90
45549;DHT22;31270;48.328;10.096;2022-09-09T07:13:57;14.80;99.90
45549;DHT22;31270;48.328;10.096;2022-09-09T07:16:24;14.90;99.90
45549;DHT22;31270;48.328;10.096;2022-09-09T07:18:51;15.20;99.90
45549;DHT22;31270;48.328;10.096;2022-09-09T07:21:17;15.30;99.90
45549;DHT22;31270;48.328;10.096;2022-09-09T07:23:44;15.50;99.90
45549;DHT22;31270;48.328;10.096;2022-09-09T07:26:15;15.70;99.90
45549;DHT22;31270;48.328;10.096;2022-09-09T07:28:41;15.90;99.90
45549;DHT22;31270;48.328;10.096;2022-09-09T07:31:13;16.00;99.90
45549;DHT22;31270;48.328;10.096;2022-09-09T07:33:40;16.00;99.90
45549;DHT22;31270;48.328;10.096;2022-09-09T07:36:27;16.20;99.90
45549;DHT22;31270;48.328;10.096;2022-09-09T07:38:55;16.40;99.90
45549;DHT22;31270;48.328;10.096;2022-09-09T07:41:24;16.60;99.90
45549;DHT22;31270;48.328;10.096;2022-09-09T07:43:51;16.70;99.90
45549;DHT22;31270;48.328;10.096;2022-09-09T07:46:20;16.80;99.90
45549;DHT22;31270;48.328;10.096;2022-09-09T07:48:56;16.80;99.90
45549;DHT22;31270;48.328;10.096;2022-09-09T07:51:30;17.00;99.90
45549;DHT22;31270;48.328;10.096;2022-09-09T07:53:59;17.10;99.90
45549;DHT22;31270;48.328;10.096;2022-09-09T07:56:26;17.30;99.90
45549;DHT22;31270;48.328;10.096;2022-09-09T07:58:54;17.50;99.90
45549;DHT22;31270;48.328;10.096;2022-09-09T08:01:27;17.70;99.90
45549;DHT22;31270;48.328;10.096;2022-09-09T08:03:55;17.80;99.90
45549;DHT22;31270;48.328;10.096;2022-09-09T08:06:22;17.70;99.90
45549;DHT22;31270;48.328;10.096;2022-09-09T08:08:50;17.70;99.90
45549;DHT22;31270;48.328;10.096;2022-09-09T08:11:17;17.60;99.90
45549;DHT22;31270;48.328;10.096;2022-09-09T08:13:43;17.70;99.90
45549;DHT22;31270;48.328;10.096;2022-09-09T08:16:15;17.90;99.90
45549;DHT22;31270;48.328;10.096;2022-09-09T08:18:42;17.80;99.90
45549;DHT22;31270;48.328;10.096;2022-09-09T08:21:16;17.80;99.90
45549;DHT22;31270;48.328;10.096;2022-09-09T08:23:44;17.90;99.90
45549;DHT22;31270;48.328;10.096;2022-09-09T08:26:20;17.80;99.90
45549;DHT22;31270;48.328;10.096;2022-09-09T08:28:52;17.90;99.90
45549;DHT22;31270;48.328;10.096;2022-09-09T08:31:20;18.10;99.90
45549;DHT22;31270;48.328;10.096;2022-09-09T08:33:47;18.20;99.90
45549;DHT22;31270;48.328;10.096;2022-09-09T08:36:18;18.50;99.90
45549;DHT22;31270;48.328;10.096;2022-09-09T08:38:48;18.60;99.90
45549;DHT22;31270;48.328;10.096;2022-09-09T08:41:43;18.70;99.90
45549;DHT22;31270;48.328;10.096;2022-09-09T08:46:59;18.90;99.90
45549;DHT22;31270;48.328;10.096;2022-09-09T08:52:15;19.10;99.90
45549;DHT22;31270;48.328;10.096;2022-09-09T08:54:41;19.20;99.90
45549;DHT22;31270;48.328;10.096;2022-09-09T08:57:13;19.20;99.90
45549;DHT22;31270;48.328;10.096;2022-09-09T08:59:40;19.20;99.90
45549;DHT22;31270;48.328;10.096;2022-09-09T09:02:21;19.30;99.90
45549;DHT22;31270;48.328;10.096;2022-09-09T09:04:58;19.50;99.90
45549;DHT22;31270;48.328;10.096;2022-09-09T09:13:13;19.60;99.90
45549;DHT22;31270;48.328;10.096;2022-09-09T09:15:41;19.60;99.90
45549;DHT22;31270;48.328;10.096;2022-09-09T09:18:11;19.90;99.90
45549;DHT22;31270;48.328;10.096;2022-09-09T09:21:20;20.10;99.90
45549;DHT22;31270;48.328;10.096;2022-09-09T09:23:40;20.30;99.90
45549;DHT22;31270;48.328;10.096;2022-09-09T09:26:09;20.70;99.90
45549;DHT22;31270;48.328;10.096;2022-09-09T09:28:36;21.00;99.90
45549;DHT22;31270;48.328;10.096;2022-09-09T09:31:07;21.20;99.90
45549;DHT22;31270;48.328;10.096;2022-09-09T09:36:09;21.50;99.90
45549;DHT22;31270;48.328;10.096;2022-09-09T09:38:36;21.30;99.90
45549;DHT22;31270;48.328;10.096;2022-09-09T09:41:02;21.30;99.90
45549;DHT22;31270;48.328;10.096;2022-09-09T09:43:30;21.60;99.90
45549;DHT22;31270;48.328;10.096;2022-09-09T09:45:56;21.80;99.90
45549;DHT22;31270;48.328;10.096;2022-09-09T09:48:27;22.10;99.90
45549;DHT22;31270;48.328;10.096;2022-09-09T09:50:59;22.30;99.90
45549;DHT22;31270;48.328;10.096;2022-09-09T09:53:29;22.60;99.90
45549;DHT22;31270;48.328;10.096;2022-09-09T09:56:01;22.80;99.90
45549;DHT22;31270;48.328;10.096;2022-09-09T09:58:31;23.00;99.90
45549;DHT22;31270;48.328;10.096;2022-09-09T10:00:59;23.10;99.90
45549;DHT22;31270;48.328;10.096;2022-09-09T10:03:27;23.00;99.90
45549;DHT22;31270;48.328;10.096;2022-09-09T10:05:53;23.20;99.90
45549;DHT22;31270;48.328;10.096;2022-09-09T10:08:19;23.20;99.90
45549;DHT22;31270;48.328;10.096;2022-09-09T10:11:13;23.10;99.90
45549;DHT22;31270;48.328;10.096;2022-09-09T10:16:36;23.20;99.90
45549;DHT22;31270;48.328;10.096;2022-09-09T10:19:09;23.10;99.90
45549;DHT22;31270;48.328;10.096;2022-09-09T10:27:54;23.40;99.90
45549;DHT22;31270;48.328;10.096;2022-09-09T10:31:06;23.60;99.90
45549;DHT22;31270;48.328;10.096;2022-09-09T10:34:11;23.70;99.90
45549;DHT22;31270;48.328;10.096;2022-09-09T10:36:45;23.90;99.90
45549;DHT22;31270;48.328;10.096;2022-09-09T10:39:25;24.00;99.90
45549;DHT22;31270;48.328;10.096;2022-09-09T10:42:16;23.80;99.90
45549;DHT22;31270;48.328;10.096;2022-09-09T10:55:26;24.40;99.90
45549;DHT22;31270;48.328;10.096;2022-09-09T10:57:58;24.20;99.90
45549;DHT22;31270;48.328;10.096;2022-09-09T11:03:03;23.80;99.90
45549;DHT22;31270;48.328;10.096;2022-09-09T11:05:42;24.20;99.90
45549;DHT22;31270;48.328;10.096;2022-09-09T11:08:11;24.60;99.90
45549;DHT22;31270;48.328;10.096;2022-09-09T11:13:05;25.00;99.90
45549;DHT22;31270;48.328;10.096;2022-09-09T11:15:49;24.80;99.90
45549;DHT22;31270;48.328;10.096;2022-09-09T11:18:21;24.50;99.90
45549;DHT22;31270;48.328;10.096;2022-09-09T11:20:51;24.50;99.90
45549;DHT22;31270;48.328;10.096;2022-09-09T11:23:27;24.70;99.90
45549;DHT22;31270;48.328;10.096;2022-09-09T11:26:00;24.90;99.90
45549;DHT22;31270;48.328;10.096;2022-09-09T11:31:17;25.50;99.90
45549;DHT22;31270;48.328;10.096;2022-09-09T11:36:54;25.20;99.90
45549;DHT22;31270;48.328;10.096;2022-09-09T11:42:15;25.40;99.90
45549;DHT22;31270;48.328;10.096;2022-09-09T11:44:42;25.60;99.90
45549;DHT22;31270;48.328;10.096;2022-09-09T11:47:23;25.70;99.90
45549;DHT22;31270;48.328;10.096;2022-09-09T11:50:07;25.80;99.90
45549;DHT22;31270;48.328;10.096;2022-09-09T11:52:41;25.60;99.90
45549;DHT22;31270;48.328;10.096;2022-09-09T11:55:31;25.40;99.90
45549;DHT22;31270;48.328;10.096;2022-09-09T12:00:35;25.30;99.90
45549;DHT22;31270;48.328;10.096;2022-09-09T12:03:03;25.20;99.90
45549;DHT22;31270;48.328;10.096;2022-09-09T12:05:42;25.00;99.90
45549;DHT22;31270;48.328;10.096;2022-09-09T12:08:11;25.00;99.90
45549;DHT22;31270;48.328;10.096;2022-09-09T12:10:40;25.10;99.90
45549;DHT22;31270;48.328;10.096;2022-09-09T12:13:21;25.20;99.90
45549;DHT22;31270;48.328;10.096;2022-09-09T12:15:55;25.10;99.90
45549;DHT22;31270;48.328;10.096;2022-09-09T12:18:31;25.10;99.90
45549;DHT22;31270;48.328;10.096;2022-09-09T12:21:21;25.10;99.90
45549;DHT22;31270;48.328;10.096;2022-09-09T12:23:58;25.10;99.90
45549;DHT22;31270;48.328;10.096;2022-09-09T12:27:07;25.20;99.90
45549;DHT22;31270;48.328;10.096;2022-09-09T12:29:45;25.20;99.90
45549;DHT22;31270;48.328;10.096;2022-09-09T12:32:16;24.90;99.90
45549;DHT22;31270;48.328;10.096;2022-09-09T12:34:44;24.70;99.90
45549;DHT22;31270;48.328;10.096;2022-09-09T12:37:32;24.70;99.90
45549;DHT22;31270;48.328;10.096;2022-09-09T12:40:02;24.90;99.90
45549;DHT22;31270;48.328;10.096;2022-09-09T12:42:29;25.10;99.90
45549;DHT22;31270;48.328;10.096;2022-09-09T12:44:57;25.20;99.90
45549;DHT22;31270;48.328;10.096;2022-09-09T12:47:28;25.20;99.90
45549;DHT22;31270;48.328;10.096;2022-09-09T12:49:56;25.30;99.90
45549;DHT22;31270;48.328;10.096;2022-09-09T12:52:37;25.10;99.90
45549;DHT22;31270;48.328;10.096;2022-09-09T12:55:05;25.10;99.90
45549;DHT22;31270;48.328;10.096;2022-09-09T12:57:38;25.00;99.90
45549;DHT22;31270;48.328;10.096;2022-09-09T13:00:12;24.90;99.90
45549;DHT22;31270;48.328;10.096;2022-09-09T13:03:16;24.80;99.90
45549;DHT22;31270;48.328;10.096;2022-09-09T13:05:42;24.40;99.90
45549;DHT22;31270;48.328;10.096;2022-09-09T13:08:14;24.10;99.90
45549;DHT22;31270;48.328;10.096;2022-09-09T13:10:51;23.90;99.90
45549;DHT22;31270;48.328;10.096;2022-09-09T13:13:29;23.60;99.90
45549;DHT22;31270;48.328;10.096;2022-09-09T13:16:00;23.20;99.90
45549;DHT22;31270;48.328;10.096;2022-09-09T13:18:29;22.90;99.90
45549;DHT22;31270;48.328;10.096;2022-09-09T13:20:56;22.80;99.90
45549;DHT22;31270;48.328;10.096;2022-09-09T13:23:32;23.00;99.90
45549;DHT22;31270;48.328;10.096;2022-09-09T13:26:24;23.00;99.90
45549;DHT22;31270;48.328;10.096;2022-09-09T13:28:51;22.90;99.90
45549;DHT22;31270;48.328;10.096;2022-09-09T13:31:24;22.90;99.90
45549;DHT22;31270;48.328;10.096;2022-09-09T13:33:53;22.80;99.90
45549;DHT22;31270;48.328;10.096;2022-09-09T13:36:28;22.90;99.90
45549;DHT22;31270;48.328;10.096;2022-09-09T13:38:56;22.90;99.90
45549;DHT22;31270;48.328;10.096;2022-09-09T13:41:31;22.80;99.90
45549;DHT22;31270;48.328;10.096;2022-09-09T13:43:58;22.80;99.90
45549;DHT22;31270;48.328;10.096;2022-09-09T13:46:35;23.00;99.90
45549;DHT22;31270;48.328;10.096;2022-09-09T13:51:38;23.20;99.90
45549;DHT22;31270;48.328;10.096;2022-09-09T13:54:09;23.50;99.90
45549;DHT22;31270;48.328;10.096;2022-09-09T13:56:37;23.80;99.90
45549;DHT22;31270;48.328;10.096;2022-09-09T13:59:05;23.90;99.90
45549;DHT22;31270;48.328;10.096;2022-09-09T14:01:31;24.00;99.90
45549;DHT22;31270;48.328;10.096;2022-09-09T14:03:56;24.20;99.90
45549;DHT22;31270;48.328;10.096;2022-09-09T14:06:22;24.30;99.90
45549;DHT22;31270;48.328;10.096;2022-09-09T14:08:51;24.10;99.90
45549;DHT22;31270;48.328;10.096;2022-09-09T14:11:18;24.10;99.90
45549;DHT22;31270;48.328;10.096;2022-09-09T14:13:44;24.00;99.90
45549;DHT22;31270;48.328;10.096;2022-09-09T14:16:10;24.40;99.90
45549;DHT22;31270;48.328;10.096;2022-09-09T14:18:36;24.60;99.90
45549;DHT22;31270;48.328;10.096;2022-09-09T14:21:03;24.50;99.90
45549;DHT22;31270;48.328;10.096;2022-09-09T14:23:29;24.50;99.90
45549;DHT22;31270;48.328;10.096;2022-09-09T14:25:55;24.60;99.90
45549;DHT22;31270;48.328;10.096;2022-09-09T14:28:21;24.60;99.90
45549;DHT22;31270;48.328;10.096;2022-09-09T14:30:47;24.40;99.90
45549;DHT22;31270;48.328;10.096;2022-09-09T14:33:15;24.50;99.90
45549;DHT22;31270;48.328;10.096;2022-09-09T14:35:42;24.40;99.90
45549;DHT22;31270;48.328;10.096;2022-09-09T14:38:08;24.30;99.90
45549;DHT22;31270;48.328;10.096;2022-09-09T14:40:35;24.10;99.90
45549;DHT22;31270;48.328;10.096;2022-09-09T14:43:01;24.00;99.90
45549;DHT22;31270;48.328;10.096;2022-09-09T14:45:27;24.00;99.90
45549;DHT22;31270;48.328;10.096;2022-09-09T14:47:54;23.70;99.90
45549;DHT22;31270;48.328;10.096;2022-09-09T14:50:20;23.60;99.90
45549;DHT22;31270;48.328;10.096;2022-09-09T14:52:46;23.60;99.90
45549;DHT22;31270;48.328;10.096;2022-09-09T14:55:13;23.60;99.90
45549;DHT22;31270;48.328;10.096;2022-09-09T14:57:38;23.60;99.90
45549;DHT22;31270;48.328;10.096;2022-09-09T15:00:07;23.60;99.90
45549;DHT22;31270;48.328;10.096;2022-09-09T15:02:33;23.50;99.90
45549;DHT22;31270;48.328;10.096;2022-09-09T15:05:01;23.60;99.90
45549;DHT22;31270;48.328;10.096;2022-09-09T15:07:27;23.50;99.90
45549;DHT22;31270;48.328;10.096;2022-09-09T15:09:54;23.50;99.90
45549;DHT22;31270;48.328;10.096;2022-09-09T15:12:20;23.60;99.90
45549;DHT22;31270;48.328;10.096;2022-09-09T15:14:46;23.60;99.90
45549;DHT22;31270;48.328;10.096;2022-09-09T15:17:12;23.50;99.90
45549;DHT22;31270;48.328;10.096;2022-09-09T15:19:38;23.30;99.90
45549;DHT22;31270;48.328;10.096;2022-09-09T15:22:04;23.20;99.90
45549;DHT22;31270;48.328;10.096;2022-09-09T15:24:33;23.20;99.90
45549;DHT22;31270;48.328;10.096;2022-09-09T15:26:59;23.20;99.90
45549;DHT22;31270;48.328;10.096;2022-09-09T15:29:25;23.30;99.90
45549;DHT22;31270;48.328;10.096;2022-09-09T15:31:51;23.20;99.90
45549;DHT22;31270;48.328;10.096;2022-09-09T15:34:18;23.00;99.90
45549;DHT22;31270;48.328;10.096;2022-09-09T15:36:45;23.00;99.90
45549;DHT22;31270;48.328;10.096;2022-09-09T15:39:13;23.00;99.90
45549;DHT22;31270;48.328;10.096;2022-09-09T15:41:45;22.80;99.90
45549;DHT22;31270;48.328;10.096;2022-09-09T15:44:12;22.80;99.90
45549;DHT22;31270;48.328;10.096;2022-09-09T15:46:40;22.80;99.90
45549;DHT22;31270;48.328;10.096;2022-09-09T15:49:11;22.70;99.90
45549;DHT22;31270;48.328;10.096;2022-09-09T15:51:42;22.70;99.90
45549;DHT22;31270;48.328;10.096;2022-09-09T15:54:09;22.70;99.90
45549;DHT22;31270;48.328;10.096;2022-09-09T15:56:35;22.70;99.90
45549;DHT22;31270;48.328;10.096;2022-09-09T15:59:01;22.70;99.90
45549;DHT22;31270;48.328;10.096;2022-09-09T16:01:28;22.70;99.90
45549;DHT22;31270;48.328;10.096;2022-09-09T16:03:56;22.60;99.90
45549;DHT22;31270;48.328;10.096;2022-09-09T16:06:24;22.60;99.90
45549;DHT22;31270;48.328;10.096;2022-09-09T16:08:51;22.70;99.90
45549;DHT22;31270;48.328;10.096;2022-09-09T16:11:26;22.70;99.90
45549;DHT22;31270;48.328;10.096;2022-09-09T16:13:53;22.80;99.90
45549;DHT22;31270;48.328;10.096;2022-09-09T16:16:22;22.70;99.90
45549;DHT22;31270;48.328;10.096;2022-09-09T16:18:49;22.70;99.90
45549;DHT22;31270;48.328;10.096;2022-09-09T16:21:22;22.60;99.90
45549;DHT22;31270;48.328;10.096;2022-09-09T16:23:50;22.50;99.90
45549;DHT22;31270;48.328;10.096;2022-09-09T16:26:17;22.40;99.90
45549;DHT22;31270;48.328;10.096;2022-09-09T16:28:43;22.30;99.90
45549;DHT22;31270;48.328;10.096;2022-09-09T16:31:20;22.20;99.90
45549;DHT22;31270;48.328;10.096;2022-09-09T16:33:47;22.00;99.90
45549;DHT22;31270;48.328;10.096;2022-09-09T16:36:16;21.80;99.90
45549;DHT22;31270;48.328;10.096;2022-09-09T16:38:42;21.70;99.90
45549;DHT22;31270;48.328;10.096;2022-09-09T16:41:09;21.60;99.90
45549;DHT22;31270;48.328;10.096;2022-09-09T16:43:36;21.50;99.90
45549;DHT22;31270;48.328;10.096;2022-09-09T16:46:16;21.40;99.90
45549;DHT22;31270;48.328;10.096;2022-09-09T16:48:43;21.30;99.90
45549;DHT22;31270;48.328;10.096;2022-09-09T16:51:14;21.10;99.90
45549;DHT22;31270;48.328;10.096;2022-09-09T16:53:40;21.00;99.90